Time;durP1;ratioP1;P1;durP2;ratioP2;P2;SDS_P1;SDS_P2;PMS_P1;PMS_P2;Temp;Humidity;BMP_temperature;BMP_pressure;BME280_temperature;BME280_humidity;BME280_pressure;Samples;Min_cycle;Max_cycle;Signal;HPM_P1;HPM_P2
2024/03/01 00:02:06;;;;;;;6.43;3.00;;;;;;;;;;5047655;28;20923;-72
2024/03/01 00:04:34;;;;;;;7.93;2.55;;;;;;;;;;5037696;28;20059;-74
2024/03/01 00:07:01;;;;;;;6.95;3.13;;;;;;;;;;5044037;28;20071;-74
2024/03/01 00:09:28;;;;;;;7.43;2.88;;;;;;;;;;5041594;28;20126;-71
2024/03/01 00:11:54;;;;;;;6.90;3.10;;;;;;;;;;5033322;28;20088;-69
2024/03/01 00:14:21;;;;;;;5.95;2.45;;;;;;;;;;5019411;28;20060;-72
2024/03/01 00:16:48;;;;;;;7.72;3.33;;;;;;;;;;5043644;28;20060;-71
2024/03/01 00:19:15;;;;;;;7.53;3.28;;;;;;;;;;5039214;28;20057;-70
2024/03/01 00:21:44;;;;;;;7.60;3.28;;;;;;;;;;5036776;28;20107;-70
2024/03/01 00:24:11;;;;;;;7.65;3.00;;;;;;;;;;5034102;28;20067;-71
2024/03/01 00:26:38;;;;;;;7.43;3.15;;;;;;;;;;5040440;28;20032;-71
2024/03/01 00:29:05;;;;;;;4.72;1.88;;;;;;;;;;5040710;28;20053;-71
2024/03/01 00:31:31;;;;;;;9.93;3.83;;;;;;;;;;5044496;28;20052;-70
2024/03/01 00:33:58;;;;;;;7.88;3.20;;;;;;;;;;4999349;28;20052;-72
2024/03/01 00:36:25;;;;;;;6.47;2.90;;;;;;;;;;5040257;28;20068;-73
2024/03/01 00:38:53;;;;;;;8.75;3.45;;;;;;;;;;5041707;28;20052;-71
2024/03/01 00:41:20;;;;;;;8.90;3.42;;;;;;;;;;5040855;28;20053;-70
2024/03/01 00:43:48;;;;;;;7.38;3.30;;;;;;;;;;5033407;28;20158;-71
2024/03/01 00:46:15;;;;;;;7.82;2.75;;;;;;;;;;5038383;28;20057;-70
2024/03/01 00:48:42;;;;;;;8.88;3.95;;;;;;;;;;5038740;28;20053;-72
2024/03/01 00:51:08;;;;;;;7.60;3.05;;;;;;;;;;5072417;28;20045;-71
2024/03/01 00:53:35;;;;;;;9.63;3.28;;;;;;;;;;5035398;28;20061;-72
2024/03/01 00:56:04;;;;;;;9.18;3.80;;;;;;;;;;5012203;28;20060;-70
2024/03/01 00:58:31;;;;;;;11.20;3.58;;;;;;;;;;5019331;28;20061;-71
2024/03/01 01:00:58;;;;;;;9.13;4.05;;;;;;;;;;5020784;28;20112;-73
2024/03/01 01:03:24;;;;;;;8.95;3.63;;;;;;;;;;5020463;28;20068;-74
2024/03/01 01:05:51;;;;;;;9.02;3.53;;;;;;;;;;5029140;28;20060;-70
2024/03/01 01:08:18;;;;;;;8.02;3.58;;;;;;;;;;5037672;28;20063;-70
2024/03/01 01:10:45;;;;;;;7.60;3.35;;;;;;;;;;5040052;28;20610;-72
2024/03/01 01:13:14;;;;;;;9.35;3.45;;;;;;;;;;5038326;28;20139;-70
2024/03/01 01:15:41;;;;;;;7.18;2.85;;;;;;;;;;5020744;28;20064;-73
2024/03/01 01:18:09;;;;;;;10.32;3.60;;;;;;;;;;5035868;28;20176;-71
2024/03/01 01:20:36;;;;;;;8.90;4.10;;;;;;;;;;5042954;28;20073;-72
2024/03/01 01:23:03;;;;;;;9.40;4.03;;;;;;;;;;5035352;28;20056;-74
2024/03/01 01:25:30;;;;;;;9.95;4.00;;;;;;;;;;5031513;28;20071;-72
2024/03/01 01:27:57;;;;;;;9.88;3.55;;;;;;;;;;5030085;28;20171;-71
2024/03/01 01:30:26;;;;;;;9.40;4.03;;;;;;;;;;5040171;28;20057;-75
2024/03/01 01:32:53;;;;;;;9.25;3.20;;;;;;;;;;5037199;28;20056;-73
2024/03/01 01:35:19;;;;;;;9.30;4.13;;;;;;;;;;5035043;28;20057;-74
2024/03/01 01:37:49;;;;;;;12.60;4.05;;;;;;;;;;5036298;28;20083;-71
2024/03/01 01:40:16;;;;;;;7.47;2.90;;;;;;;;;;5054345;28;20052;-70
2024/03/01 01:42:43;;;;;;;8.90;3.55;;;;;;;;;;5039484;28;20122;-71
2024/03/01 01:45:13;;;;;;;9.98;3.85;;;;;;;;;;5022584;28;20582;-73
2024/03/01 01:47:41;;;;;;;10.80;3.33;;;;;;;;;;5038019;28;20064;-68
2024/03/01 01:50:09;;;;;;;7.63;3.22;;;;;;;;;;5034961;28;20174;-73
2024/03/01 01:52:37;;;;;;;10.27;3.80;;;;;;;;;;5054247;28;20196;-72
2024/03/01 01:55:04;;;;;;;8.77;3.75;;;;;;;;;;5050186;28;20158;-70
2024/03/01 01:57:33;;;;;;;8.43;3.83;;;;;;;;;;5037839;28;20056;-71
2024/03/01 02:00:00;;;;;;;13.43;3.90;;;;;;;;;;5037597;28;20238;-73
2024/03/01 02:02:27;;;;;;;9.07;4.03;;;;;;;;;;5042282;28;20415;-71
2024/03/01 02:04:56;;;;;;;10.25;3.70;;;;;;;;;;5038381;28;20053;-68
2024/03/01 02:07:23;;;;;;;9.55;4.18;;;;;;;;;;5038511;28;20064;-73
2024/03/01 02:09:53;;;;;;;10.10;4.22;;;;;;;;;;5034265;28;20084;-69
2024/03/01 02:12:21;;;;;;;11.02;4.40;;;;;;;;;;5036548;28;20057;-71
2024/03/01 02:14:48;;;;;;;;;;;;;;;;;;5034776;28;21005;-71
2024/03/01 02:17:15;;;;;;;11.05;3.67;;;;;;;;;;5040705;28;19934;-70
2024/03/01 02:19:41;;;;;;;8.73;3.58;;;;;;;;;;5036671;28;20071;-71
2024/03/01 02:22:12;;;;;;;9.88;3.85;;;;;;;;;;5034714;28;20045;-71
2024/03/01 02:24:41;;;;;;;9.32;4.00;;;;;;;;;;5031734;28;20167;-68
2024/03/01 02:27:08;;;;;;;8.63;3.70;;;;;;;;;;5038274;28;20123;-72
2024/03/01 02:29:35;;;;;;;7.90;3.58;;;;;;;;;;5038701;28;20059;-70
2024/03/01 02:32:02;;;;;;;10.82;4.07;;;;;;;;;;5033857;28;20072;-69
2024/03/01 02:34:29;;;;;;;10.55;3.97;;;;;;;;;;5031174;28;20065;-69
2024/03/01 02:36:55;;;;;;;11.57;3.90;;;;;;;;;;5069945;28;20049;-72
2024/03/01 02:39:25;;;;;;;10.73;4.22;;;;;;;;;;5070146;28;21078;-71
2024/03/01 02:41:53;;;;;;;9.90;3.70;;;;;;;;;;5032399;28;20064;-69
2024/03/01 02:44:20;;;;;;;7.63;3.50;;;;;;;;;;5031851;28;20145;-71
2024/03/01 02:46:46;;;;;;;10.07;3.88;;;;;;;;;;5038615;28;20063;-71
2024/03/01 02:49:14;;;;;;;9.23;4.00;;;;;;;;;;5040384;28;20056;-69
2024/03/01 02:51:41;;;;;;;8.07;3.30;;;;;;;;;;5035283;28;20144;-73
2024/03/01 02:54:08;;;;;;;11.63;4.03;;;;;;;;;;5058350;28;20061;-70
2024/03/01 02:56:35;;;;;;;7.40;3.15;;;;;;;;;;5038190;28;20592;-72
2024/03/01 02:59:03;;;;;;;10.45;3.72;;;;;;;;;;5035574;28;20061;-73
2024/03/01 03:01:31;;;;;;;7.60;3.40;;;;;;;;;;5038425;28;20119;-73
2024/03/01 03:04:00;;;;;;;12.82;4.32;;;;;;;;;;5006702;28;20142;-73
2024/03/01 03:06:26;;;;;;;;;;;;;;;;;;5039774;28;20066;-70
2024/03/01 03:08:54;;;;;;;7.20;3.08;;;;;;;;;;5038564;28;19929;-73
2024/03/01 03:11:21;;;;;;;9.05;3.50;;;;;;;;;;5037117;28;20065;-72
2024/03/01 03:13:48;;;;;;;9.27;3.72;;;;;;;;;;5026876;28;20068;-73
2024/03/01 03:16:17;;;;;;;8.97;3.37;;;;;;;;;;5045292;28;20045;-71
2024/03/01 03:18:45;;;;;;;9.40;3.75;;;;;;;;;;5025964;28;20067;-69
2024/03/01 03:21:11;;;;;;;9.00;3.47;;;;;;;;;;5026554;28;20270;-74
2024/03/01 03:23:39;;;;;;;8.70;3.38;;;;;;;;;;5021784;28;20061;-69
2024/03/01 03:26:06;;;;;;;11.98;3.75;;;;;;;;;;5022883;28;20079;-69
2024/03/01 03:28:32;;;;;;;9.63;3.13;;;;;;;;;;5026599;28;20071;-74
2024/03/01 03:30:59;;;;;;;8.95;3.35;;;;;;;;;;5026552;28;20060;-72
2024/03/01 03:33:28;;;;;;;8.88;3.38;;;;;;;;;;5020959;28;20061;-72
2024/03/01 03:35:54;;;;;;;12.27;3.97;;;;;;;;;;5010614;28;20103;-70
2024/03/01 03:38:21;;;;;;;13.48;3.75;;;;;;;;;;5018698;28;21071;-73
2024/03/01 03:40:48;;;;;;;9.35;3.28;;;;;;;;;;5051828;28;20148;-75
2024/03/01 03:43:15;;;;;;;8.40;2.97;;;;;;;;;;5015571;28;20115;-73
2024/03/01 03:45:42;;;;;;;7.57;3.13;;;;;;;;;;5028114;28;20088;-72
2024/03/01 03:48:09;;;;;;;5.60;2.30;;;;;;;;;;5032694;28;20061;-72
2024/03/01 03:50:37;;;;;;;7.60;3.08;;;;;;;;;;5040348;28;20076;-73
2024/03/01 03:53:04;;;;;;;7.60;2.55;;;;;;;;;;5040369;28;20134;-70
2024/03/01 03:55:31;;;;;;;4.22;1.75;;;;;;;;;;5034906;28;20063;-70
2024/03/01 03:57:58;;;;;;;6.13;2.63;;;;;;;;;;5031921;28;20147;-72
2024/03/01 04:00:25;;;;;;;5.60;2.30;;;;;;;;;;5039360;28;20061;-69
2024/03/01 04:02:52;;;;;;;5.97;2.30;;;;;;;;;;5077549;28;20053;-68
2024/03/01 04:05:19;;;;;;;3.63;1.98;;;;;;;;;;5035609;28;20065;-71
2024/03/01 04:07:47;;;;;;;7.00;2.83;;;;;;;;;;5036436;28;20187;-71
2024/03/01 04:10:14;;;;;;;6.40;2.47;;;;;;;;;;5056313;28;20171;-74
2024/03/01 04:12:43;;;;;;;5.00;2.10;;;;;;;;;;5038200;28;20951;-70
2024/03/01 04:15:09;;;;;;;;;;;;;;;;;;5041319;28;20083;-71
2024/03/01 04:17:39;;;;;;;6.05;2.38;;;;;;;;;;5038668;28;20027;-74
2024/03/01 04:20:08;;;;;;;5.35;1.77;;;;;;;;;;5037061;28;20065;-73
2024/03/01 04:22:36;;;;;;;3.00;1.65;;;;;;;;;;5056918;28;20067;-70
2024/03/01 04:25:05;;;;;;;2.92;1.40;;;;;;;;;;5036751;28;20068;-71
2024/03/01 04:27:32;;;;;;;7.78;1.13;;;;;;;;;;5038581;28;20061;-70
2024/03/01 04:29:59;;;;;;;4.05;1.65;;;;;;;;;;5035124;28;20084;-69
2024/03/01 04:32:27;;;;;;;2.97;1.20;;;;;;;;;;5042500;28;20068;-71
2024/03/01 04:34:54;;;;;;;4.93;1.40;;;;;;;;;;5037335;28;20203;-75
2024/03/01 04:37:21;;;;;;;2.88;1.30;;;;;;;;;;5042630;28;20063;-73
2024/03/01 04:39:48;;;;;;;2.33;1.20;;;;;;;;;;5035759;28;20064;-71
2024/03/01 04:42:17;;;;;;;2.42;1.23;;;;;;;;;;5038434;28;20164;-72
2024/03/01 04:44:44;;;;;;;3.58;1.20;;;;;;;;;;5066238;28;20163;-73
2024/03/01 04:47:11;;;;;;;2.55;0.80;;;;;;;;;;5039113;28;20045;-72
2024/03/01 04:49:45;;;;;;;1.92;1.08;;;;;;;;;;5042800;28;20048;-70
2024/03/01 04:52:14;;;;;;;1.52;0.90;;;;;;;;;;5034953;28;20314;-73
2024/03/01 04:54:41;;;;;;;3.08;1.10;;;;;;;;;;5022237;28;20057;-72
2024/03/01 04:57:09;;;;;;;2.65;1.50;;;;;;;;;;5021004;28;20056;-70
2024/03/01 04:59:39;;;;;;;2.53;1.05;;;;;;;;;;5019158;28;20147;-72
2024/03/01 05:02:07;;;;;;;3.42;0.80;;;;;;;;;;5009674;28;20068;-72
2024/03/01 05:04:36;;;;;;;2.03;0.98;;;;;;;;;;5022653;28;21384;-71
2024/03/01 05:07:03;;;;;;;1.45;0.90;;;;;;;;;;5044735;28;20056;-71
2024/03/01 05:09:30;;;;;;;2.30;1.00;;;;;;;;;;5040881;28;20083;-71
2024/03/01 05:11:57;;;;;;;3.63;1.00;;;;;;;;;;5033865;28;20114;-70
2024/03/01 05:14:24;;;;;;;4.25;0.80;;;;;;;;;;5035367;28;20060;-70
2024/03/01 05:16:52;;;;;;;2.10;1.33;;;;;;;;;;5073797;28;20062;-72
2024/03/01 05:19:19;;;;;;;2.22;0.75;;;;;;;;;;5034448;28;20064;-72
2024/03/01 05:21:47;;;;;;;1.65;0.70;;;;;;;;;;5039188;28;20061;-69
2024/03/01 05:24:14;;;;;;;1.67;0.90;;;;;;;;;;5030650;28;20056;-72
2024/03/01 05:26:40;;;;;;;2.15;0.88;;;;;;;;;;5037294;28;20135;-73
2024/03/01 05:29:07;;;;;;;4.28;1.20;;;;;;;;;;5036150;28;20060;-71
2024/03/01 05:31:49;;;;;;;2.80;0.90;;;;;;;;;;5070110;28;20090;-71
2024/03/01 05:34:17;;;;;;;3.03;1.17;;;;;;;;;;5028093;28;20065;-75
2024/03/01 05:36:44;;;;;;;2.72;1.10;;;;;;;;;;5027834;28;20057;-73
2024/03/01 05:39:17;;;;;;;6.68;2.00;;;;;;;;;;5029784;28;20058;-75
2024/03/01 05:41:44;;;;;;;3.00;1.15;;;;;;;;;;5024671;28;20056;-76
2024/03/01 05:44:14;;;;;;;2.60;1.05;;;;;;;;;;5020012;28;20491;-69
2024/03/01 05:46:41;;;;;;;2.10;1.00;;;;;;;;;;5040244;28;20151;-70
2024/03/01 05:49:09;;;;;;;1.45;0.80;;;;;;;;;;5033102;28;20088;-74
2024/03/01 05:51:38;;;;;;;2.25;0.93;;;;;;;;;;5037529;28;20638;-73
2024/03/01 05:54:06;;;;;;;1.88;0.90;;;;;;;;;;5043720;28;20063;-69
2024/03/01 05:56:33;;;;;;;0.82;0.70;;;;;;;;;;5008157;28;20189;-74
2024/03/01 05:58:59;;;;;;;2.60;0.90;;;;;;;;;;5004423;28;20053;-73
2024/03/01 06:01:27;;;;;;;3.47;1.13;;;;;;;;;;5030649;28;20206;-70
2024/03/01 06:03:53;;;;;;;1.00;0.73;;;;;;;;;;5026486;28;20063;-70
2024/03/01 06:06:20;;;;;;;2.83;0.85;;;;;;;;;;5035572;28;20053;-71
2024/03/01 06:08:49;;;;;;;2.75;1.10;;;;;;;;;;5033455;28;20073;-71
2024/03/01 06:11:15;;;;;;;3.90;1.27;;;;;;;;;;5033140;28;20072;-71
2024/03/01 06:13:43;;;;;;;9.63;2.85;;;;;;;;;;5031547;28;20060;-70
2024/03/01 06:16:12;;;;;;;5.05;2.05;;;;;;;;;;5028589;28;20177;-70
2024/03/01 06:18:39;;;;;;;5.28;2.00;;;;;;;;;;5036246;28;20060;-67
2024/03/01 06:21:06;;;;;;;4.25;2.05;;;;;;;;;;5037779;28;20161;-74
2024/03/01 06:23:33;;;;;;;4.05;1.90;;;;;;;;;;5031044;28;20053;-70
2024/03/01 06:26:01;;;;;;;6.93;2.10;;;;;;;;;;5020198;28;20072;-72
2024/03/01 06:28:31;;;;;;;4.72;1.88;;;;;;;;;;5025895;28;20049;-73
2024/03/01 06:31:00;;;;;;;3.55;1.70;;;;;;;;;;5026461;28;20052;-74
2024/03/01 06:33:28;;;;;;;4.07;1.85;;;;;;;;;;4995876;28;20061;-72
2024/03/01 06:36:07;;;;;;;20.27;7.20;;;;;;;;;;5032821;28;20449;-74
2024/03/01 06:38:38;;;;;;;6.13;2.30;;;;;;;;;;5036375;28;20059;-70
2024/03/01 06:41:08;;;;;;;;;;;;;;;;;;5041057;28;20057;-70
2024/03/01 06:43:35;;;;;;;4.65;1.80;;;;;;;;;;5022315;28;19998;-72
2024/03/01 06:46:02;;;;;;;4.50;2.03;;;;;;;;;;5017673;28;20144;-73
2024/03/01 06:48:29;;;;;;;2.70;1.50;;;;;;;;;;5052514;28;20859;-73
2024/03/01 06:50:56;;;;;;;2.83;1.40;;;;;;;;;;5018502;28;20062;-76
2024/03/01 06:53:26;;;;;;;2.95;1.23;;;;;;;;;;5052739;28;20060;-74
2024/03/01 06:55:55;;;;;;;4.53;1.58;;;;;;;;;;5044938;28;20052;-75
2024/03/01 06:58:25;;;;;;;3.05;1.40;;;;;;;;;;5038730;28;20138;-70
2024/03/01 07:00:52;;;;;;;2.15;1.08;;;;;;;;;;5074942;28;20562;-71
2024/03/01 07:03:23;;;;;;;5.03;1.83;;;;;;;;;;5042382;28;20080;-74
2024/03/01 07:05:53;;;;;;;5.85;1.45;;;;;;;;;;5031744;28;20060;-73
2024/03/01 07:08:20;;;;;;;8.40;1.88;;;;;;;;;;5037224;28;20143;-72
2024/03/01 07:10:48;;;;;;;3.80;1.60;;;;;;;;;;5040874;28;20052;-74
2024/03/01 07:13:15;;;;;;;5.43;1.40;;;;;;;;;;5038507;28;20100;-73
2024/03/01 07:15:46;;;;;;;3.97;1.30;;;;;;;;;;5027672;28;20071;-74
2024/03/01 07:18:13;;;;;;;2.78;1.35;;;;;;;;;;5040311;28;20056;-70
2024/03/01 07:20:40;;;;;;;3.58;1.50;;;;;;;;;;5038651;28;20116;-72
2024/03/01 07:23:07;;;;;;;4.82;1.50;;;;;;;;;;5040024;28;20056;-72
2024/03/01 07:25:34;;;;;;;2.53;1.38;;;;;;;;;;5026815;28;20075;-75
2024/03/01 07:28:01;;;;;;;6.10;1.70;;;;;;;;;;5031015;28;20048;-72
2024/03/01 07:30:28;;;;;;;5.07;2.13;;;;;;;;;;5037207;28;20078;-75
2024/03/01 07:32:56;;;;;;;9.25;3.25;;;;;;;;;;5037825;28;20056;-74
2024/03/01 07:35:26;;;;;;;7.47;2.88;;;;;;;;;;5035745;28;20076;-75
2024/03/01 07:37:59;;;;;;;6.90;1.92;;;;;;;;;;5033870;28;20119;-74
2024/03/01 07:40:25;;;;;;;7.78;2.67;;;;;;;;;;5039027;28;20181;-74
2024/03/01 07:42:52;;;;;;;5.15;1.95;;;;;;;;;;5042291;28;20122;-70
2024/03/01 07:45:20;;;;;;;5.30;2.05;;;;;;;;;;5035265;28;20087;-71
2024/03/01 07:47:50;;;;;;;8.52;2.78;;;;;;;;;;5041233;28;20068;-71
2024/03/01 07:50:20;;;;;;;5.68;2.53;;;;;;;;;;5043258;28;20088;-70
2024/03/01 07:52:46;;;;;;;9.85;3.88;;;;;;;;;;5042182;28;20098;-73
2024/03/01 07:55:13;;;;;;;6.70;2.55;;;;;;;;;;5030307;28;20057;-70
2024/03/01 07:57:43;;;;;;;8.63;3.20;;;;;;;;;;5029657;28;20056;-71
2024/03/01 08:00:11;;;;;;;5.72;2.42;;;;;;;;;;5028217;28;20060;-71
2024/03/01 08:02:38;;;;;;;6.70;2.70;;;;;;;;;;5034993;28;20128;-72
2024/03/01 08:05:09;;;;;;;8.15;2.92;;;;;;;;;;5024679;28;20255;-71
2024/03/01 08:07:37;;;;;;;6.13;2.55;;;;;;;;;;5030486;28;20167;-73
2024/03/01 08:10:07;;;;;;;;;;;;;;;;;;5020466;28;21953;-76
2024/03/01 08:12:34;;;;;;;8.25;2.80;;;;;;;;;;5028212;28;20025;-73
2024/03/01 08:15:08;;;;;;;8.77;3.38;;;;;;;;;;5023630;28;20052;-70
2024/03/01 08:17:35;;;;;;;12.57;3.88;;;;;;;;;;5058320;28;20071;-71
2024/03/01 08:20:11;;;;;;;11.63;4.18;;;;;;;;;;5033484;28;20052;-71
2024/03/01 08:22:41;;;;;;;8.85;4.40;;;;;;;;;;5038324;28;20103;-73
2024/03/01 08:25:10;;;;;;;11.45;4.07;;;;;;;;;;5036403;28;20067;-71
2024/03/01 08:27:40;;;;;;;9.05;4.15;;;;;;;;;;5040043;28;20052;-72
2024/03/01 08:30:23;;;;;;;10.13;4.63;;;;;;;;;;5037206;28;20052;-74
2024/03/01 08:32:51;;;;;;;11.25;4.65;;;;;;;;;;5038474;28;20147;-72
2024/03/01 08:35:18;;;;;;;10.00;4.60;;;;;;;;;;5026242;28;20053;-69
2024/03/01 08:37:50;;;;;;;9.15;4.70;;;;;;;;;;5038902;28;20048;-75
2024/03/01 08:40:51;;;;;;;11.20;5.07;;;;;;;;;;5038608;28;20056;-73
2024/03/01 08:43:18;;;;;;;13.45;5.78;;;;;;;;;;5039425;28;20040;-73
2024/03/01 08:45:48;;;;;;;16.35;6.38;;;;;;;;;;5005796;28;20070;-72
2024/03/01 08:48:18;;;;;;;11.73;4.65;;;;;;;;;;5033223;28;20059;-73
2024/03/01 08:50:49;;;;;;;12.02;4.80;;;;;;;;;;5027539;28;20041;-74
2024/03/01 08:53:57;;;;;;;12.25;5.05;;;;;;;;;;5027829;28;20045;-72
2024/03/01 08:56:31;;;;;;;12.90;4.97;;;;;;;;;;5037082;28;20067;-70
2024/03/01 08:58:58;;;;;;;9.85;4.45;;;;;;;;;;5037836;28;20064;-74
2024/03/01 09:01:46;;;;;;;12.18;4.97;;;;;;;;;;5038566;28;20064;-70
2024/03/01 09:04:19;;;;;;;10.27;4.20;;;;;;;;;;5028130;28;20060;-72
2024/03/01 09:06:55;;;;;;;10.25;3.72;;;;;;;;;;5037094;28;20060;-70
2024/03/01 09:09:24;;;;;;;11.38;4.13;;;;;;;;;;5039653;28;20130;-68
2024/03/01 09:11:53;;;;;;;10.50;3.72;;;;;;;;;;5033796;28;20061;-71
2024/03/01 09:14:29;;;;;;;10.70;4.30;;;;;;;;;;5058753;28;20045;-71
2024/03/01 09:16:56;;;;;;;9.63;3.83;;;;;;;;;;5038875;28;20180;-74
2024/03/01 09:19:26;;;;;;;8.73;3.70;;;;;;;;;;5038905;28;20064;-70
2024/03/01 09:21:53;;;;;;;10.57;4.85;;;;;;;;;;5033660;28;20049;-69
2024/03/01 09:24:22;;;;;;;10.63;4.43;;;;;;;;;;5024762;28;20067;-74
2024/03/01 09:26:51;;;;;;;10.77;3.70;;;;;;;;;;5051161;28;20084;-72
2024/03/01 09:29:37;;;;;;;9.52;4.47;;;;;;;;;;5039342;28;20049;-69
2024/03/01 09:32:07;;;;;;;;;;;;;;;;;;5018400;28;20282;-70
2024/03/01 09:34:37;;;;;;;12.25;4.03;;;;;;;;;;5022246;28;19927;-73
2024/03/01 09:37:11;;;;;;;11.55;3.78;;;;;;;;;;5066056;28;20131;-72
2024/03/01 09:39:41;;;;;;;11.15;3.70;;;;;;;;;;5039908;28;20069;-72
2024/03/01 09:42:28;;;;;;;8.80;3.80;;;;;;;;;;5038424;28;20049;-73
2024/03/01 09:45:08;;;;;;;12.15;3.80;;;;;;;;;;5033652;28;20059;-72
2024/03/01 09:47:49;;;;;;;11.88;3.85;;;;;;;;;;5046311;28;20067;-72
2024/03/01 09:50:31;;;;;;;8.25;3.95;;;;;;;;;;5036151;28;20084;-73
2024/03/01 09:53:12;;;;;;;8.32;3.35;;;;;;;;;;5038416;28;20980;-71
2024/03/01 09:55:48;;;;;;;8.00;3.33;;;;;;;;;;5024987;28;20064;-71
2024/03/01 09:58:23;;;;;;;14.00;3.70;;;;;;;;;;5036068;28;20057;-70
2024/03/01 10:01:03;;;;;;;9.07;3.22;;;;;;;;;;5038631;28;20294;-73
2024/03/01 10:03:39;;;;;;;6.28;2.75;;;;;;;;;;5036702;28;20060;-73
2024/03/01 10:06:34;;;;;;;10.07;4.13;;;;;;;;;;5021144;28;20126;-68
2024/03/01 10:09:09;;;;;;;10.25;3.40;;;;;;;;;;5040853;28;20063;-69
2024/03/01 10:11:52;;;;;;;8.77;3.25;;;;;;;;;;5040298;28;20060;-67
2024/03/01 10:14:31;;;;;;;8.25;3.10;;;;;;;;;;5011213;28;20056;-70
2024/03/01 10:17:07;;;;;;;11.23;3.08;;;;;;;;;;5038537;28;20194;-71
2024/03/01 10:19:52;;;;;;;8.00;3.08;;;;;;;;;;5040411;28;20059;-70
2024/03/01 10:22:25;;;;;;;5.82;2.17;;;;;;;;;;5041024;28;20055;-70
2024/03/01 10:25:10;;;;;;;11.43;3.10;;;;;;;;;;5028722;28;20060;-70
2024/03/01 10:27:42;;;;;;;7.30;2.60;;;;;;;;;;5027726;28;20053;-71
2024/03/01 10:30:18;;;;;;;8.02;2.65;;;;;;;;;;5025116;28;20086;-72
2024/03/01 10:33:03;;;;;;;10.63;3.22;;;;;;;;;;5033102;28;20055;-76
2024/03/01 10:35:40;;;;;;;10.13;2.55;;;;;;;;;;5012363;28;20153;-68
2024/03/01 10:38:14;;;;;;;5.00;1.98;;;;;;;;;;5013742;28;20132;-67
2024/03/01 10:40:50;;;;;;;6.88;2.10;;;;;;;;;;5016312;28;20152;-68
2024/03/01 10:43:26;;;;;;;6.50;2.60;;;;;;;;;;5017936;28;20060;-68
2024/03/01 10:46:08;;;;;;;10.80;4.32;;;;;;;;;;5022681;28;20052;-67
2024/03/01 10:48:43;;;;;;;6.70;2.47;;;;;;;;;;5037015;28;20056;-70
2024/03/01 10:51:16;;;;;;;7.25;2.03;;;;;;;;;;5038377;28;20130;-70
2024/03/01 10:53:48;;;;;;;8.32;2.15;;;;;;;;;;5034192;28;20142;-67
2024/03/01 10:56:16;;;;;;;9.98;2.35;;;;;;;;;;5032013;28;20041;-71
2024/03/01 10:58:46;;;;;;;6.80;2.38;;;;;;;;;;5036361;28;20068;-69
2024/03/01 11:01:24;;;;;;;7.20;1.98;;;;;;;;;;5039291;28;20155;-71
2024/03/01 11:03:58;;;;;;;9.23;2.60;;;;;;;;;;5030565;28;20049;-68
2024/03/01 11:06:34;;;;;;;11.27;2.50;;;;;;;;;;5015327;28;20061;-67
2024/03/01 11:09:08;;;;;;;6.20;2.22;;;;;;;;;;5022198;28;20045;-68
2024/03/01 11:11:46;;;;;;;7.00;2.55;;;;;;;;;;5017482;28;20068;-69
2024/03/01 11:14:18;;;;;;;6.55;1.83;;;;;;;;;;4977994;28;20056;-68
2024/03/01 11:16:51;;;;;;;3.85;1.50;;;;;;;;;;5012802;28;20076;-67
2024/03/01 11:19:24;;;;;;;6.60;2.17;;;;;;;;;;5031737;28;20057;-70
2024/03/01 11:22:04;;;;;;;7.28;2.10;;;;;;;;;;5020066;28;20200;-68
2024/03/01 11:24:39;;;;;;;6.70;2.25;;;;;;;;;;5029046;28;20048;-71
2024/03/01 11:27:12;;;;;;;4.93;2.00;;;;;;;;;;5039572;28;20048;-69
2024/03/01 11:29:49;;;;;;;4.53;1.60;;;;;;;;;;5034353;28;20053;-69
2024/03/01 11:32:19;;;;;;;7.68;1.92;;;;;;;;;;5036325;28;20052;-68
2024/03/01 11:35:01;;;;;;;6.07;1.90;;;;;;;;;;5031058;28;20237;-71
2024/03/01 11:37:36;;;;;;;3.95;1.88;;;;;;;;;;5041271;28;20061;-71
2024/03/01 11:40:10;;;;;;;10.68;3.25;;;;;;;;;;5032938;28;20056;-70
2024/03/01 11:42:49;;;;;;;5.40;1.85;;;;;;;;;;5039200;28;20048;-71
2024/03/01 11:45:23;;;;;;;5.95;2.03;;;;;;;;;;5034141;28;20210;-66
2024/03/01 11:48:07;;;;;;;4.90;1.65;;;;;;;;;;5032368;28;20191;-67
2024/03/01 11:50:53;;;;;;;4.50;1.70;;;;;;;;;;5037753;28;20059;-69
2024/03/01 11:53:40;;;;;;;6.50;1.88;;;;;;;;;;5070346;28;20064;-70
2024/03/01 11:56:29;;;;;;;4.30;1.73;;;;;;;;;;5004623;28;20107;-69
2024/03/01 11:59:11;;;;;;;2.60;1.42;;;;;;;;;;5018285;28;21138;-70
2024/03/01 12:01:55;;;;;;;4.93;1.50;;;;;;;;;;5021623;28;20092;-70
2024/03/01 12:05:16;;;;;;;1.95;1.10;;;;;;;;;;5017553;28;20205;-72
2024/03/01 12:08:08;;;;;;;2.53;1.10;;;;;;;;;;5019067;28;20071;-69
2024/03/01 12:10:50;;;;;;;8.32;1.63;;;;;;;;;;5043262;28;20052;-70
2024/03/01 12:13:18;;;;;;;4.18;1.55;;;;;;;;;;5044895;28;20106;-68
2024/03/01 12:15:57;;;;;;;4.97;1.65;;;;;;;;;;5032545;28;20143;-68
2024/03/01 12:18:34;;;;;;;2.30;1.10;;;;;;;;;;5039873;28;20062;-67
2024/03/01 12:21:21;;;;;;;5.53;1.38;;;;;;;;;;5038150;28;20277;-73
2024/03/01 12:23:59;;;;;;;3.63;1.15;;;;;;;;;;5040625;28;20147;-71
2024/03/01 12:26:32;;;;;;;3.65;1.08;;;;;;;;;;5035720;28;20060;-71
2024/03/01 12:29:10;;;;;;;4.40;1.20;;;;;;;;;;5055259;28;20060;-68
2024/03/01 12:31:50;;;;;;;1.85;0.88;;;;;;;;;;5077713;28;20068;-75
2024/03/01 12:34:41;;;;;;;5.03;1.48;;;;;;;;;;5034064;28;20175;-74
2024/03/01 12:37:24;;;;;;;3.17;0.98;;;;;;;;;;5044364;28;20095;-71
2024/03/01 12:40:15;;;;;;;3.47;0.80;;;;;;;;;;5035441;28;20082;-71
2024/03/01 12:42:56;;;;;;;7.82;2.33;;;;;;;;;;5041123;28;20115;-69
2024/03/01 12:45:34;;;;;;;5.53;1.15;;;;;;;;;;5024625;28;20064;-69
2024/03/01 12:48:17;;;;;;;3.47;1.10;;;;;;;;;;5029768;28;20064;-76
2024/03/01 12:50:57;;;;;;;2.40;1.10;;;;;;;;;;5021682;28;20124;-74
2024/03/01 12:53:51;;;;;;;4.85;1.30;;;;;;;;;;5024537;28;20170;-72
2024/03/01 12:56:33;;;;;;;3.80;1.27;;;;;;;;;;5004774;28;20055;-71
2024/03/01 12:59:19;;;;;;;4.60;1.50;;;;;;;;;;5035718;28;20126;-72
2024/03/01 13:02:04;;;;;;;2.40;1.13;;;;;;;;;;5010672;28;20061;-73
2024/03/01 13:04:39;;;;;;;2.95;1.30;;;;;;;;;;4986174;28;20191;-71
2024/03/01 13:07:09;;;;;;;5.68;1.30;;;;;;;;;;5020976;28;20057;-73
2024/03/01 13:09:49;;;;;;;2.20;1.00;;;;;;;;;;5023917;28;20427;-70
2024/03/01 13:12:20;;;;;;;2.67;1.10;;;;;;;;;;5019568;28;20052;-74
2024/03/01 13:15:08;;;;;;;3.80;1.02;;;;;;;;;;5021563;28;20049;-79
2024/03/01 13:17:43;;;;;;;2.40;0.95;;;;;;;;;;5040306;28;20072;-69
2024/03/01 13:20:27;;;;;;;1.98;0.95;;;;;;;;;;5036449;28;20053;-70
2024/03/01 13:23:15;;;;;;;5.22;1.08;;;;;;;;;;5042638;28;20051;-72
2024/03/01 13:25:55;;;;;;;5.63;1.10;;;;;;;;;;4995210;28;20230;-70
2024/03/01 13:28:23;;;;;;;1.55;0.80;;;;;;;;;;5040146;28;20204;-72
2024/03/01 13:30:51;;;;;;;3.10;1.25;;;;;;;;;;5041197;28;20057;-73
2024/03/01 13:36:36;;;;;;;6.63;1.13;;;;;;;;;;5011686;28;20048;-69
2024/03/01 13:39:11;;;;;;;4.60;1.00;;;;;;;;;;5043577;28;20072;-77
2024/03/01 13:42:04;;;;;;;2.92;0.85;;;;;;;;;;5039004;28;20174;-74
2024/03/01 13:44:35;;;;;;;1.33;0.80;;;;;;;;;;4993715;28;20057;-73
2024/03/01 13:47:15;;;;;;;1.35;0.80;;;;;;;;;;5039698;28;20053;-73
2024/03/01 13:49:48;;;;;;;2.40;0.90;;;;;;;;;;5035607;28;21002;-70
2024/03/01 13:52:15;;;;;;;4.47;0.90;;;;;;;;;;5073097;28;21022;-74
2024/03/01 13:54:43;;;;;;;4.60;0.70;;;;;;;;;;5027558;28;20060;-69
2024/03/01 13:57:14;;;;;;;1.05;0.70;;;;;;;;;;5043727;28;20139;-71
2024/03/01 13:59:43;;;;;;;0.85;0.65;;;;;;;;;;5039651;28;20072;-72
2024/03/01 14:02:11;;;;;;;4.97;0.73;;;;;;;;;;5036801;28;20080;-75
2024/03/01 14:05:00;;;;;;;2.42;0.82;;;;;;;;;;4979843;28;20087;-74
2024/03/01 14:07:29;;;;;;;3.78;0.90;;;;;;;;;;5038439;28;20061;-73
2024/03/01 14:10:06;;;;;;;4.72;0.70;;;;;;;;;;5038732;28;20200;-73
2024/03/01 14:12:35;;;;;;;1.05;0.63;;;;;;;;;;5038672;28;20057;-73
2024/03/01 14:15:12;;;;;;;2.97;0.70;;;;;;;;;;5034740;28;20057;-72
2024/03/01 14:17:47;;;;;;;1.00;0.60;;;;;;;;;;5039093;28;20056;-75
2024/03/01 14:20:17;;;;;;;5.80;0.85;;;;;;;;;;5040288;28;20060;-69
2024/03/01 14:22:46;;;;;;;0.82;0.65;;;;;;;;;;5038232;28;20139;-76
2024/03/01 14:25:15;;;;;;;1.90;0.70;;;;;;;;;;5026920;28;21088;-73
2024/03/01 14:28:23;;;;;;;1.33;0.70;;;;;;;;;;5042812;28;20055;-75
2024/03/01 14:31:00;;;;;;;3.45;0.60;;;;;;;;;;5018558;28;20053;-72
2024/03/01 14:33:27;;;;;;;2.90;0.80;;;;;;;;;;5042266;28;20049;-72
2024/03/01 14:36:03;;;;;;;3.60;0.90;;;;;;;;;;5028019;28;20056;-77
2024/03/01 14:38:30;;;;;;;1.08;0.70;;;;;;;;;;5039375;28;20101;-72
2024/03/01 14:41:03;;;;;;;1.55;0.75;;;;;;;;;;5043205;28;20061;-75
2024/03/01 14:43:30;;;;;;;2.70;1.02;;;;;;;;;;5039194;28;20145;-76
2024/03/01 14:45:59;;;;;;;3.65;1.65;;;;;;;;;;5024325;28;20064;-79
2024/03/01 14:48:28;;;;;;;4.57;0.93;;;;;;;;;;5042242;28;20446;-73
2024/03/01 14:50:58;;;;;;;2.63;0.80;;;;;;;;;;5038467;28;20048;-74
2024/03/01 14:53:39;;;;;;;1.13;0.52;;;;;;;;;;5069861;28;20057;-73
2024/03/01 14:56:10;;;;;;;6.15;1.08;;;;;;;;;;5034244;28;20055;-77
2024/03/01 14:58:38;;;;;;;0.93;0.60;;;;;;;;;;5073629;28;20068;-76
2024/03/01 15:01:07;;;;;;;4.78;0.70;;;;;;;;;;5040485;28;20087;-75
2024/03/01 15:03:35;;;;;;;3.40;0.65;;;;;;;;;;5039161;28;20057;-76
2024/03/01 15:06:05;;;;;;;1.05;0.60;;;;;;;;;;5018636;28;20045;-74
2024/03/01 15:08:33;;;;;;;2.38;0.60;;;;;;;;;;5037416;28;20136;-70
2024/03/01 15:11:05;;;;;;;5.22;0.85;;;;;;;;;;5070349;28;20079;-71
2024/03/01 15:13:34;;;;;;;1.02;0.63;;;;;;;;;;5038578;28;20147;-77